sensor_id;sensor_type;location;lat;lon;timestamp;temperature;humidity
65044;DHT22;51617;48.158;16.464;2023-11-19T00:00:09;4.90;98.00
65044;DHT22;51617;48.158;16.464;2023-11-19T00:02:39;4.90;98.00
65044;DHT22;51617;48.158;16.464;2023-11-19T00:05:05;4.90;97.80
65044;DHT22;51617;48.158;16.464;2023-11-19T00:07:37;4.90;97.80
65044;DHT22;51617;48.158;16.464;2023-11-19T00:10:08;4.90;97.90
65044;DHT22;51617;48.158;16.464;2023-11-19T00:12:42;4.90;98.00
65044;DHT22;51617;48.158;16.464;2023-11-19T00:15:10;4.80;98.00
65044;DHT22;51617;48.158;16.464;2023-11-19T00:17:47;4.80;98.20
65044;DHT22;51617;48.158;16.464;2023-11-19T00:20:14;4.80;98.20
65044;DHT22;51617;48.158;16.464;2023-11-19T00:22:42;4.80;98.20
65044;DHT22;51617;48.158;16.464;2023-11-19T00:25:08;4.80;98.30
65044;DHT22;51617;48.158;16.464;2023-11-19T00:27:35;4.80;98.40
65044;DHT22;51617;48.158;16.464;2023-11-19T00:30:01;4.70;98.40
65044;DHT22;51617;48.158;16.464;2023-11-19T00:32:26;4.70;98.50
65044;DHT22;51617;48.158;16.464;2023-11-19T00:34:52;4.70;98.50
65044;DHT22;51617;48.158;16.464;2023-11-19T00:37:17;4.80;98.60
65044;DHT22;51617;48.158;16.464;2023-11-19T00:39:43;4.80;98.60
65044;DHT22;51617;48.158;16.464;2023-11-19T00:42:10;4.90;98.70
65044;DHT22;51617;48.158;16.464;2023-11-19T00:44:36;5.00;98.70
65044;DHT22;51617;48.158;16.464;2023-11-19T00:47:02;5.00;98.80
65044;DHT22;51617;48.158;16.464;2023-11-19T00:49:28;5.00;98.70
65044;DHT22;51617;48.158;16.464;2023-11-19T00:51:53;4.90;98.80
65044;DHT22;51617;48.158;16.464;2023-11-19T00:54:19;5.00;99.00
65044;DHT22;51617;48.158;16.464;2023-11-19T00:56:45;5.10;98.80
65044;DHT22;51617;48.158;16.464;2023-11-19T00:59:11;5.00;98.90
65044;DHT22;51617;48.158;16.464;2023-11-19T01:01:37;5.10;99.00
65044;DHT22;51617;48.158;16.464;2023-11-19T01:04:02;5.10;99.20
65044;DHT22;51617;48.158;16.464;2023-11-19T01:06:32;5.10;99.30
65044;DHT22;51617;48.158;16.464;2023-11-19T01:08:58;5.10;99.40
65044;DHT22;51617;48.158;16.464;2023-11-19T01:11:24;5.10;99.50
65044;DHT22;51617;48.158;16.464;2023-11-19T01:13:51;5.10;99.60
65044;DHT22;51617;48.158;16.464;2023-11-19T01:16:17;5.10;99.60
65044;DHT22;51617;48.158;16.464;2023-11-19T01:18:44;5.10;99.60
65044;DHT22;51617;48.158;16.464;2023-11-19T01:21:09;5.10;99.60
65044;DHT22;51617;48.158;16.464;2023-11-19T01:23:35;5.10;99.70
65044;DHT22;51617;48.158;16.464;2023-11-19T01:26:02;5.20;99.80
65044;DHT22;51617;48.158;16.464;2023-11-19T01:28:28;5.10;99.80
65044;DHT22;51617;48.158;16.464;2023-11-19T01:30:54;5.20;99.70
65044;DHT22;51617;48.158;16.464;2023-11-19T01:33:19;5.20;99.80
65044;DHT22;51617;48.158;16.464;2023-11-19T01:35:46;5.20;99.90
65044;DHT22;51617;48.158;16.464;2023-11-19T01:38:12;5.10;99.90
65044;DHT22;51617;48.158;16.464;2023-11-19T01:40:37;5.20;99.90
65044;DHT22;51617;48.158;16.464;2023-11-19T01:43:03;5.20;99.90
65044;DHT22;51617;48.158;16.464;2023-11-19T01:45:30;5.10;99.90
65044;DHT22;51617;48.158;16.464;2023-11-19T01:48:02;5.20;99.90
65044;DHT22;51617;48.158;16.464;2023-11-19T01:50:30;5.30;99.90
65044;DHT22;51617;48.158;16.464;2023-11-19T01:52:57;5.20;99.90
65044;DHT22;51617;48.158;16.464;2023-11-19T01:55:24;5.20;99.90
65044;DHT22;51617;48.158;16.464;2023-11-19T01:57:51;5.20;99.90
65044;DHT22;51617;48.158;16.464;2023-11-19T02:00:18;5.20;99.90
65044;DHT22;51617;48.158;16.464;2023-11-19T02:02:48;5.20;99.90
65044;DHT22;51617;48.158;16.464;2023-11-19T02:05:14;5.20;99.90
65044;DHT22;51617;48.158;16.464;2023-11-19T02:07:40;5.40;99.90
65044;DHT22;51617;48.158;16.464;2023-11-19T02:10:06;5.20;99.90
65044;DHT22;51617;48.158;16.464;2023-11-19T02:12:39;5.30;99.90
65044;DHT22;51617;48.158;16.464;2023-11-19T02:15:09;5.30;99.90
65044;DHT22;51617;48.158;16.464;2023-11-19T02:17:35;5.30;99.90
65044;DHT22;51617;48.158;16.464;2023-11-19T02:20:03;5.30;99.90
65044;DHT22;51617;48.158;16.464;2023-11-19T02:22:31;5.40;99.90
65044;DHT22;51617;48.158;16.464;2023-11-19T02:25:04;5.40;99.90
65044;DHT22;51617;48.158;16.464;2023-11-19T02:30:14;5.40;99.90
65044;DHT22;51617;48.158;16.464;2023-11-19T02:32:41;5.50;99.90
65044;DHT22;51617;48.158;16.464;2023-11-19T02:35:07;5.40;99.90
65044;DHT22;51617;48.158;16.464;2023-11-19T02:37:34;5.50;99.90
65044;DHT22;51617;48.158;16.464;2023-11-19T02:39:59;5.40;99.90
65044;DHT22;51617;48.158;16.464;2023-11-19T02:42:28;5.40;99.90
65044;DHT22;51617;48.158;16.464;2023-11-19T02:44:54;5.50;99.90
65044;DHT22;51617;48.158;16.464;2023-11-19T02:47:19;5.60;99.90
65044;DHT22;51617;48.158;16.464;2023-11-19T02:49:47;5.60;99.90
65044;DHT22;51617;48.158;16.464;2023-11-19T02:52:13;5.60;99.90
65044;DHT22;51617;48.158;16.464;2023-11-19T02:54:40;5.60;99.90
65044;DHT22;51617;48.158;16.464;2023-11-19T02:57:07;5.60;99.90
65044;DHT22;51617;48.158;16.464;2023-11-19T02:59:38;5.50;99.90
65044;DHT22;51617;48.158;16.464;2023-11-19T03:02:04;5.50;99.90
65044;DHT22;51617;48.158;16.464;2023-11-19T03:04:35;5.40;99.90
65044;DHT22;51617;48.158;16.464;2023-11-19T03:07:00;5.40;99.90
65044;DHT22;51617;48.158;16.464;2023-11-19T03:09:27;5.40;99.90
65044;DHT22;51617;48.158;16.464;2023-11-19T03:11:54;5.50;99.90
65044;DHT22;51617;48.158;16.464;2023-11-19T03:14:20;5.50;99.90
65044;DHT22;51617;48.158;16.464;2023-11-19T03:16:45;5.50;99.90
65044;DHT22;51617;48.158;16.464;2023-11-19T03:19:14;5.50;99.90
65044;DHT22;51617;48.158;16.464;2023-11-19T03:21:40;5.60;99.90
65044;DHT22;51617;48.158;16.464;2023-11-19T03:24:06;5.60;99.90
65044;DHT22;51617;48.158;16.464;2023-11-19T03:26:32;5.70;99.90
65044;DHT22;51617;48.158;16.464;2023-11-19T03:28:59;5.70;99.90
65044;DHT22;51617;48.158;16.464;2023-11-19T03:31:25;5.80;99.90
65044;DHT22;51617;48.158;16.464;2023-11-19T03:33:51;5.70;99.90
65044;DHT22;51617;48.158;16.464;2023-11-19T03:36:17;5.70;99.90
65044;DHT22;51617;48.158;16.464;2023-11-19T03:38:42;5.70;99.90
65044;DHT22;51617;48.158;16.464;2023-11-19T03:41:12;5.70;99.90
65044;DHT22;51617;48.158;16.464;2023-11-19T03:43:38;5.70;99.90
65044;DHT22;51617;48.158;16.464;2023-11-19T03:46:05;5.70;99.90
65044;DHT22;51617;48.158;16.464;2023-11-19T03:48:31;5.60;99.90
65044;DHT22;51617;48.158;16.464;2023-11-19T03:50:56;5.60;99.90
65044;DHT22;51617;48.158;16.464;2023-11-19T03:53:22;5.70;99.90
65044;DHT22;51617;48.158;16.464;2023-11-19T03:55:49;5.60;99.90
65044;DHT22;51617;48.158;16.464;2023-11-19T03:58:15;5.60;99.90
65044;DHT22;51617;48.158;16.464;2023-11-19T04:00:41;5.70;99.90
65044;DHT22;51617;48.158;16.464;2023-11-19T04:03:06;5.60;99.90
65044;DHT22;51617;48.158;16.464;2023-11-19T04:05:32;5.80;99.90
65044;DHT22;51617;48.158;16.464;2023-11-19T04:07:58;5.80;99.90
65044;DHT22;51617;48.158;16.464;2023-11-19T04:10:23;5.80;99.90
65044;DHT22;51617;48.158;16.464;2023-11-19T04:12:49;5.80;99.90
65044;DHT22;51617;48.158;16.464;2023-11-19T04:15:15;5.80;99.90
65044;DHT22;51617;48.158;16.464;2023-11-19T04:17:41;5.90;99.90
65044;DHT22;51617;48.158;16.464;2023-11-19T04:20:07;5.90;99.90
65044;DHT22;51617;48.158;16.464;2023-11-19T04:22:37;5.90;99.90
65044;DHT22;51617;48.158;16.464;2023-11-19T04:25:03;6.00;99.90
65044;DHT22;51617;48.158;16.464;2023-11-19T04:27:30;5.90;99.90
65044;DHT22;51617;48.158;16.464;2023-11-19T04:29:55;5.90;99.90
65044;DHT22;51617;48.158;16.464;2023-11-19T04:32:21;5.90;99.90
65044;DHT22;51617;48.158;16.464;2023-11-19T04:34:46;6.00;99.90
65044;DHT22;51617;48.158;16.464;2023-11-19T04:37:12;5.90;99.90
65044;DHT22;51617;48.158;16.464;2023-11-19T04:39:37;5.90;99.90
65044;DHT22;51617;48.158;16.464;2023-11-19T04:42:03;5.90;99.90
65044;DHT22;51617;48.158;16.464;2023-11-19T04:44:30;5.90;99.90
65044;DHT22;51617;48.158;16.464;2023-11-19T04:46:55;5.90;99.90
65044;DHT22;51617;48.158;16.464;2023-11-19T04:49:21;5.90;99.90
65044;DHT22;51617;48.158;16.464;2023-11-19T04:51:47;5.90;99.90
65044;DHT22;51617;48.158;16.464;2023-11-19T04:54:12;5.90;99.90
65044;DHT22;51617;48.158;16.464;2023-11-19T04:56:38;5.90;99.90
65044;DHT22;51617;48.158;16.464;2023-11-19T04:59:05;6.00;99.90
65044;DHT22;51617;48.158;16.464;2023-11-19T05:01:34;5.90;99.90
65044;DHT22;51617;48.158;16.464;2023-11-19T05:04:01;5.90;99.90
65044;DHT22;51617;48.158;16.464;2023-11-19T05:06:31;5.90;99.90
65044;DHT22;51617;48.158;16.464;2023-11-19T05:09:00;5.90;99.90
65044;DHT22;51617;48.158;16.464;2023-11-19T05:11:26;5.80;99.90
65044;DHT22;51617;48.158;16.464;2023-11-19T05:13:54;5.70;99.90
65044;DHT22;51617;48.158;16.464;2023-11-19T05:16:19;5.70;99.90
65044;DHT22;51617;48.158;16.464;2023-11-19T05:18:46;5.70;99.90
65044;DHT22;51617;48.158;16.464;2023-11-19T05:21:12;5.70;99.90
65044;DHT22;51617;48.158;16.464;2023-11-19T05:23:38;5.60;99.90
65044;DHT22;51617;48.158;16.464;2023-11-19T05:26:05;5.60;99.90
65044;DHT22;51617;48.158;16.464;2023-11-19T05:28:31;5.60;99.90
65044;DHT22;51617;48.158;16.464;2023-11-19T05:30:57;5.60;99.90
65044;DHT22;51617;48.158;16.464;2023-11-19T05:33:22;5.60;99.90
65044;DHT22;51617;48.158;16.464;2023-11-19T05:35:48;5.60;99.90
65044;DHT22;51617;48.158;16.464;2023-11-19T05:38:13;5.60;99.90
65044;DHT22;51617;48.158;16.464;2023-11-19T05:40:41;5.70;99.90
65044;DHT22;51617;48.158;16.464;2023-11-19T05:43:06;5.70;99.90
65044;DHT22;51617;48.158;16.464;2023-11-19T05:45:32;5.80;99.90
65044;DHT22;51617;48.158;16.464;2023-11-19T05:47:58;5.80;99.90
65044;DHT22;51617;48.158;16.464;2023-11-19T05:50:23;5.80;99.90
65044;DHT22;51617;48.158;16.464;2023-11-19T05:52:49;5.80;99.90
65044;DHT22;51617;48.158;16.464;2023-11-19T05:55:15;5.90;99.90
65044;DHT22;51617;48.158;16.464;2023-11-19T05:57:41;5.90;99.90
65044;DHT22;51617;48.158;16.464;2023-11-19T06:00:07;5.90;99.90
65044;DHT22;51617;48.158;16.464;2023-11-19T06:02:34;6.00;99.90
65044;DHT22;51617;48.158;16.464;2023-11-19T06:05:00;6.00;99.90
65044;DHT22;51617;48.158;16.464;2023-11-19T06:07:27;6.10;99.90
65044;DHT22;51617;48.158;16.464;2023-11-19T06:09:53;6.00;99.90
65044;DHT22;51617;48.158;16.464;2023-11-19T06:12:18;6.00;99.90
65044;DHT22;51617;48.158;16.464;2023-11-19T06:14:44;6.00;99.90
65044;DHT22;51617;48.158;16.464;2023-11-19T06:17:10;6.00;99.90
65044;DHT22;51617;48.158;16.464;2023-11-19T06:19:36;5.90;99.90
65044;DHT22;51617;48.158;16.464;2023-11-19T06:22:03;5.80;99.90
65044;DHT22;51617;48.158;16.464;2023-11-19T06:24:29;5.90;99.90
65044;DHT22;51617;48.158;16.464;2023-11-19T06:26:54;5.90;99.90
65044;DHT22;51617;48.158;16.464;2023-11-19T06:29:20;5.90;99.90
65044;DHT22;51617;48.158;16.464;2023-11-19T06:31:46;5.90;99.90
65044;DHT22;51617;48.158;16.464;2023-11-19T06:34:15;5.90;99.90
65044;DHT22;51617;48.158;16.464;2023-11-19T06:36:41;5.90;99.90
65044;DHT22;51617;48.158;16.464;2023-11-19T06:39:09;5.90;99.90
65044;DHT22;51617;48.158;16.464;2023-11-19T06:41:34;5.90;99.90
65044;DHT22;51617;48.158;16.464;2023-11-19T06:44:03;5.90;99.90
65044;DHT22;51617;48.158;16.464;2023-11-19T06:46:30;5.90;99.90
65044;DHT22;51617;48.158;16.464;2023-11-19T06:48:56;5.90;99.90
65044;DHT22;51617;48.158;16.464;2023-11-19T06:51:22;5.90;99.90
65044;DHT22;51617;48.158;16.464;2023-11-19T06:53:49;6.00;99.90
65044;DHT22;51617;48.158;16.464;2023-11-19T06:56:22;6.00;99.90
65044;DHT22;51617;48.158;16.464;2023-11-19T06:58:49;6.00;99.90
65044;DHT22;51617;48.158;16.464;2023-11-19T07:01:15;6.00;99.90
65044;DHT22;51617;48.158;16.464;2023-11-19T07:03:41;6.00;99.90
65044;DHT22;51617;48.158;16.464;2023-11-19T07:06:07;6.10;99.90
65044;DHT22;51617;48.158;16.464;2023-11-19T07:08:33;6.10;99.90
65044;DHT22;51617;48.158;16.464;2023-11-19T07:10:59;6.10;99.90
65044;DHT22;51617;48.158;16.464;2023-11-19T07:13:25;6.00;99.90
65044;DHT22;51617;48.158;16.464;2023-11-19T07:15:53;6.00;99.90
65044;DHT22;51617;48.158;16.464;2023-11-19T07:18:19;6.00;99.90
65044;DHT22;51617;48.158;16.464;2023-11-19T07:20:47;6.00;99.90
65044;DHT22;51617;48.158;16.464;2023-11-19T07:23:13;6.00;99.90
65044;DHT22;51617;48.158;16.464;2023-11-19T07:25:42;6.00;99.90
65044;DHT22;51617;48.158;16.464;2023-11-19T07:28:08;6.00;99.90
65044;DHT22;51617;48.158;16.464;2023-11-19T07:30:35;6.10;99.90
65044;DHT22;51617;48.158;16.464;2023-11-19T07:33:01;6.10;99.90
65044;DHT22;51617;48.158;16.464;2023-11-19T07:35:29;6.20;99.90
65044;DHT22;51617;48.158;16.464;2023-11-19T07:37:56;6.30;99.90
65044;DHT22;51617;48.158;16.464;2023-11-19T07:40:23;6.30;99.90
65044;DHT22;51617;48.158;16.464;2023-11-19T07:42:49;6.30;99.90
65044;DHT22;51617;48.158;16.464;2023-11-19T07:45:14;6.30;99.90
65044;DHT22;51617;48.158;16.464;2023-11-19T07:47:40;6.30;99.90
65044;DHT22;51617;48.158;16.464;2023-11-19T07:50:06;6.40;99.90
65044;DHT22;51617;48.158;16.464;2023-11-19T07:52:32;6.40;99.90
65044;DHT22;51617;48.158;16.464;2023-11-19T07:54:57;6.40;99.90
65044;DHT22;51617;48.158;16.464;2023-11-19T07:57:23;6.40;99.90
65044;DHT22;51617;48.158;16.464;2023-11-19T07:59:50;6.30;99.90
65044;DHT22;51617;48.158;16.464;2023-11-19T08:02:15;6.50;99.90
65044;DHT22;51617;48.158;16.464;2023-11-19T08:04:41;6.60;99.90
65044;DHT22;51617;48.158;16.464;2023-11-19T08:07:10;6.60;99.90
65044;DHT22;51617;48.158;16.464;2023-11-19T08:09:36;6.60;99.90
65044;DHT22;51617;48.158;16.464;2023-11-19T08:12:03;6.70;99.90
65044;DHT22;51617;48.158;16.464;2023-11-19T08:14:29;6.80;99.90
65044;DHT22;51617;48.158;16.464;2023-11-19T08:16:54;6.90;99.90
65044;DHT22;51617;48.158;16.464;2023-11-19T08:19:20;6.90;99.90
65044;DHT22;51617;48.158;16.464;2023-11-19T08:21:46;7.00;99.90
65044;DHT22;51617;48.158;16.464;2023-11-19T08:24:11;7.10;99.90
65044;DHT22;51617;48.158;16.464;2023-11-19T08:26:37;7.20;99.90
65044;DHT22;51617;48.158;16.464;2023-11-19T08:29:02;7.20;99.90
65044;DHT22;51617;48.158;16.464;2023-11-19T08:31:28;7.20;99.90
65044;DHT22;51617;48.158;16.464;2023-11-19T08:33:54;7.40;99.90
65044;DHT22;51617;48.158;16.464;2023-11-19T08:36:20;7.40;99.90
65044;DHT22;51617;48.158;16.464;2023-11-19T08:38:46;7.40;99.90
65044;DHT22;51617;48.158;16.464;2023-11-19T08:41:12;7.40;99.90
65044;DHT22;51617;48.158;16.464;2023-11-19T08:43:37;7.50;99.90
65044;DHT22;51617;48.158;16.464;2023-11-19T08:46:09;7.60;99.90
65044;DHT22;51617;48.158;16.464;2023-11-19T08:48:35;7.50;99.90
65044;DHT22;51617;48.158;16.464;2023-11-19T08:51:00;7.60;99.90
65044;DHT22;51617;48.158;16.464;2023-11-19T08:53:26;7.70;99.90
65044;DHT22;51617;48.158;16.464;2023-11-19T08:55:52;7.70;99.90
65044;DHT22;51617;48.158;16.464;2023-11-19T08:58:18;7.80;99.90
65044;DHT22;51617;48.158;16.464;2023-11-19T09:00:43;7.70;99.90
65044;DHT22;51617;48.158;16.464;2023-11-19T09:03:09;7.80;99.90
65044;DHT22;51617;48.158;16.464;2023-11-19T09:05:35;7.80;99.90
65044;DHT22;51617;48.158;16.464;2023-11-19T09:08:00;7.90;99.90
65044;DHT22;51617;48.158;16.464;2023-11-19T09:10:26;8.00;99.90
65044;DHT22;51617;48.158;16.464;2023-11-19T09:12:52;8.10;99.90
65044;DHT22;51617;48.158;16.464;2023-11-19T09:15:18;8.30;99.90
65044;DHT22;51617;48.158;16.464;2023-11-19T09:17:44;8.40;99.90
65044;DHT22;51617;48.158;16.464;2023-11-19T09:20:11;8.40;99.90
65044;DHT22;51617;48.158;16.464;2023-11-19T09:22:40;8.40;99.90
65044;DHT22;51617;48.158;16.464;2023-11-19T09:25:06;8.40;99.90
65044;DHT22;51617;48.158;16.464;2023-11-19T09:27:31;8.60;99.90
65044;DHT22;51617;48.158;16.464;2023-11-19T09:29:57;8.70;99.90
65044;DHT22;51617;48.158;16.464;2023-11-19T09:32:24;8.80;99.90
65044;DHT22;51617;48.158;16.464;2023-11-19T09:34:50;8.90;99.90
65044;DHT22;51617;48.158;16.464;2023-11-19T09:37:15;8.90;99.90
65044;DHT22;51617;48.158;16.464;2023-11-19T09:39:42;9.10;99.90
65044;DHT22;51617;48.158;16.464;2023-11-19T09:42:12;8.90;99.90
65044;DHT22;51617;48.158;16.464;2023-11-19T09:44:38;8.90;99.90
65044;DHT22;51617;48.158;16.464;2023-11-19T09:47:07;8.80;99.90
65044;DHT22;51617;48.158;16.464;2023-11-19T09:49:35;8.90;99.90
65044;DHT22;51617;48.158;16.464;2023-11-19T09:52:01;8.90;99.90
65044;DHT22;51617;48.158;16.464;2023-11-19T09:54:28;9.00;99.90
65044;DHT22;51617;48.158;16.464;2023-11-19T09:56:55;9.00;99.90
65044;DHT22;51617;48.158;16.464;2023-11-19T09:59:26;8.90;99.90
65044;DHT22;51617;48.158;16.464;2023-11-19T10:01:52;8.90;99.90
65044;DHT22;51617;48.158;16.464;2023-11-19T10:04:19;8.80;99.90
65044;DHT22;51617;48.158;16.464;2023-11-19T10:06:45;8.80;99.90
65044;DHT22;51617;48.158;16.464;2023-11-19T10:09:12;8.80;99.90
65044;DHT22;51617;48.158;16.464;2023-11-19T10:11:38;8.90;99.90
65044;DHT22;51617;48.158;16.464;2023-11-19T10:14:04;9.00;99.90
65044;DHT22;51617;48.158;16.464;2023-11-19T10:16:30;9.00;99.90
65044;DHT22;51617;48.158;16.464;2023-11-19T10:18:56;9.00;99.90
65044;DHT22;51617;48.158;16.464;2023-11-19T10:21:22;9.00;99.90
65044;DHT22;51617;48.158;16.464;2023-11-19T10:23:56;9.00;99.90
65044;DHT22;51617;48.158;16.464;2023-11-19T10:26:24;9.00;99.90
65044;DHT22;51617;48.158;16.464;2023-11-19T10:28:49;8.90;99.90
65044;DHT22;51617;48.158;16.464;2023-11-19T10:31:16;8.90;99.90
65044;DHT22;51617;48.158;16.464;2023-11-19T10:33:42;8.90;99.90
65044;DHT22;51617;48.158;16.464;2023-11-19T10:36:13;8.80;99.90
65044;DHT22;51617;48.158;16.464;2023-11-19T10:38:39;8.70;99.90
65044;DHT22;51617;48.158;16.464;2023-11-19T10:41:06;8.70;99.90
65044;DHT22;51617;48.158;16.464;2023-11-19T10:43:42;8.70;99.90
65044;DHT22;51617;48.158;16.464;2023-11-19T10:46:13;8.70;99.90
65044;DHT22;51617;48.158;16.464;2023-11-19T10:48:40;8.60;99.90
65044;DHT22;51617;48.158;16.464;2023-11-19T10:51:07;8.70;99.90
65044;DHT22;51617;48.158;16.464;2023-11-19T10:53:37;8.70;99.90
65044;DHT22;51617;48.158;16.464;2023-11-19T10:56:10;8.70;99.90
65044;DHT22;51617;48.158;16.464;2023-11-19T10:58:36;8.70;99.90
65044;DHT22;51617;48.158;16.464;2023-11-19T11:01:11;8.80;99.90
65044;DHT22;51617;48.158;16.464;2023-11-19T11:03:40;8.80;99.90
65044;DHT22;51617;48.158;16.464;2023-11-19T11:06:06;9.10;99.90
65044;DHT22;51617;48.158;16.464;2023-11-19T11:08:32;9.20;99.90
65044;DHT22;51617;48.158;16.464;2023-11-19T11:11:02;9.20;99.90
65044;DHT22;51617;48.158;16.464;2023-11-19T11:13:30;9.10;99.90
65044;DHT22;51617;48.158;16.464;2023-11-19T11:15:57;9.10;99.90
65044;DHT22;51617;48.158;16.464;2023-11-19T11:18:26;9.20;99.90
65044;DHT22;51617;48.158;16.464;2023-11-19T11:20:55;9.20;99.90
65044;DHT22;51617;48.158;16.464;2023-11-19T11:28:48;9.40;99.90
65044;DHT22;51617;48.158;16.464;2023-11-19T11:39:57;9.10;99.90
65044;DHT22;51617;48.158;16.464;2023-11-19T11:45:07;9.00;99.90
65044;DHT22;51617;48.158;16.464;2023-11-19T11:50:12;8.90;99.90
65044;DHT22;51617;48.158;16.464;2023-11-19T11:55:26;8.90;99.90
65044;DHT22;51617;48.158;16.464;2023-11-19T11:57:52;8.90;99.90
65044;DHT22;51617;48.158;16.464;2023-11-19T12:00:28;8.90;99.90
65044;DHT22;51617;48.158;16.464;2023-11-19T12:03:01;8.90;99.90
65044;DHT22;51617;48.158;16.464;2023-11-19T12:05:27;8.80;99.90
65044;DHT22;51617;48.158;16.464;2023-11-19T12:08:02;8.70;99.90
65044;DHT22;51617;48.158;16.464;2023-11-19T12:10:30;8.80;99.90
65044;DHT22;51617;48.158;16.464;2023-11-19T12:13:00;8.80;99.90
65044;DHT22;51617;48.158;16.464;2023-11-19T12:15:27;8.90;99.90
65044;DHT22;51617;48.158;16.464;2023-11-19T12:17:54;9.00;99.90
65044;DHT22;51617;48.158;16.464;2023-11-19T12:20:25;9.00;99.90
65044;DHT22;51617;48.158;16.464;2023-11-19T12:22:52;9.00;99.90
65044;DHT22;51617;48.158;16.464;2023-11-19T12:25:19;9.00;99.90
65044;DHT22;51617;48.158;16.464;2023-11-19T12:27:51;9.00;99.90
65044;DHT22;51617;48.158;16.464;2023-11-19T12:30:25;9.10;99.90
65044;DHT22;51617;48.158;16.464;2023-11-19T12:32:52;9.10;99.90
65044;DHT22;51617;48.158;16.464;2023-11-19T12:35:21;9.20;99.90
65044;DHT22;51617;48.158;16.464;2023-11-19T12:37:48;9.20;99.90
65044;DHT22;51617;48.158;16.464;2023-11-19T12:42:51;9.10;99.90
65044;DHT22;51617;48.158;16.464;2023-11-19T12:45:18;9.10;99.90
65044;DHT22;51617;48.158;16.464;2023-11-19T12:47:46;9.00;99.90
65044;DHT22;51617;48.158;16.464;2023-11-19T12:50:18;8.90;99.90
65044;DHT22;51617;48.158;16.464;2023-11-19T12:52:55;8.90;99.90
65044;DHT22;51617;48.158;16.464;2023-11-19T12:55:25;9.00;99.90
65044;DHT22;51617;48.158;16.464;2023-11-19T12:57:52;9.00;99.90
65044;DHT22;51617;48.158;16.464;2023-11-19T13:00:23;8.90;99.90
65044;DHT22;51617;48.158;16.464;2023-11-19T13:02:54;8.90;99.90
65044;DHT22;51617;48.158;16.464;2023-11-19T13:05:29;8.70;99.90
65044;DHT22;51617;48.158;16.464;2023-11-19T13:08:03;8.70;99.90
65044;DHT22;51617;48.158;16.464;2023-11-19T13:10:31;8.60;99.90
65044;DHT22;51617;48.158;16.464;2023-11-19T13:15:30;8.80;99.90
65044;DHT22;51617;48.158;16.464;2023-11-19T13:17:55;8.90;99.90
65044;DHT22;51617;48.158;16.464;2023-11-19T13:20:21;8.90;99.90
65044;DHT22;51617;48.158;16.464;2023-11-19T13:23:02;8.90;99.90
65044;DHT22;51617;48.158;16.464;2023-11-19T13:25:28;8.90;99.90
65044;DHT22;51617;48.158;16.464;2023-11-19T13:27:54;8.90;99.90
65044;DHT22;51617;48.158;16.464;2023-11-19T13:30:21;8.90;99.90
65044;DHT22;51617;48.158;16.464;2023-11-19T13:32:50;8.90;99.90
65044;DHT22;51617;48.158;16.464;2023-11-19T13:35:17;9.00;99.90
65044;DHT22;51617;48.158;16.464;2023-11-19T13:37:44;9.00;99.90
65044;DHT22;51617;48.158;16.464;2023-11-19T13:40:10;8.90;99.90
65044;DHT22;51617;48.158;16.464;2023-11-19T13:42:39;8.70;99.90
65044;DHT22;51617;48.158;16.464;2023-11-19T13:45:14;8.70;99.90
65044;DHT22;51617;48.158;16.464;2023-11-19T13:47:44;8.70;99.90
65044;DHT22;51617;48.158;16.464;2023-11-19T13:50:14;8.70;99.90
65044;DHT22;51617;48.158;16.464;2023-11-19T13:52:42;8.70;99.90
65044;DHT22;51617;48.158;16.464;2023-11-19T13:55:09;8.90;99.90
65044;DHT22;51617;48.158;16.464;2023-11-19T13:57:35;9.10;99.90
65044;DHT22;51617;48.158;16.464;2023-11-19T14:00:05;9.20;99.90
65044;DHT22;51617;48.158;16.464;2023-11-19T14:02:35;9.20;99.90
65044;DHT22;51617;48.158;16.464;2023-11-19T14:05:00;9.30;99.90
65044;DHT22;51617;48.158;16.464;2023-11-19T14:07:26;9.40;99.90
65044;DHT22;51617;48.158;16.464;2023-11-19T14:09:53;9.40;99.90
65044;DHT22;51617;48.158;16.464;2023-11-19T14:12:19;9.40;99.90
65044;DHT22;51617;48.158;16.464;2023-11-19T14:14:45;9.30;99.90
65044;DHT22;51617;48.158;16.464;2023-11-19T14:17:11;9.20;99.90
65044;DHT22;51617;48.158;16.464;2023-11-19T14:19:37;9.20;99.90
65044;DHT22;51617;48.158;16.464;2023-11-19T14:22:04;9.20;99.90
65044;DHT22;51617;48.158;16.464;2023-11-19T14:24:30;9.20;99.90
65044;DHT22;51617;48.158;16.464;2023-11-19T14:26:56;9.10;99.90
65044;DHT22;51617;48.158;16.464;2023-11-19T14:29:24;9.10;99.90
65044;DHT22;51617;48.158;16.464;2023-11-19T14:31:51;9.10;99.90
65044;DHT22;51617;48.158;16.464;2023-11-19T14:34:18;9.00;99.90
65044;DHT22;51617;48.158;16.464;2023-11-19T14:36:44;8.80;99.90
65044;DHT22;51617;48.158;16.464;2023-11-19T14:39:10;8.80;99.90
65044;DHT22;51617;48.158;16.464;2023-11-19T14:41:36;8.70;99.90
65044;DHT22;51617;48.158;16.464;2023-11-19T14:44:01;8.70;99.90
65044;DHT22;51617;48.158;16.464;2023-11-19T14:46:28;8.70;99.90
65044;DHT22;51617;48.158;16.464;2023-11-19T14:48:54;8.70;99.90
65044;DHT22;51617;48.158;16.464;2023-11-19T14:51:20;8.70;99.90
65044;DHT22;51617;48.158;16.464;2023-11-19T14:53:46;8.70;99.90
65044;DHT22;51617;48.158;16.464;2023-11-19T14:56:12;8.60;99.90
65044;DHT22;51617;48.158;16.464;2023-11-19T14:58:41;8.70;99.90
65044;DHT22;51617;48.158;16.464;2023-11-19T15:01:11;8.70;99.90
65044;DHT22;51617;48.158;16.464;2023-11-19T15:03:37;8.60;99.90
65044;DHT22;51617;48.158;16.464;2023-11-19T15:06:03;8.60;99.90
65044;DHT22;51617;48.158;16.464;2023-11-19T15:08:28;8.60;99.90
65044;DHT22;51617;48.158;16.464;2023-11-19T15:10:55;8.60;99.90
65044;DHT22;51617;48.158;16.464;2023-11-19T15:13:23;8.60;99.90
65044;DHT22;51617;48.158;16.464;2023-11-19T15:18:18;8.70;99.90
65044;DHT22;51617;48.158;16.464;2023-11-19T15:20:44;8.60;99.90
65044;DHT22;51617;48.158;16.464;2023-11-19T15:25:38;8.60;99.90
65044;DHT22;51617;48.158;16.464;2023-11-19T15:28:04;8.50;99.90
65044;DHT22;51617;48.158;16.464;2023-11-19T15:30:30;8.40;99.90
65044;DHT22;51617;48.158;16.464;2023-11-19T15:32:55;8.30;99.90
65044;DHT22;51617;48.158;16.464;2023-11-19T15:35:21;8.30;99.90
65044;DHT22;51617;48.158;16.464;2023-11-19T15:37:47;8.30;99.90
65044;DHT22;51617;48.158;16.464;2023-11-19T15:40:12;8.10;99.90
65044;DHT22;51617;48.158;16.464;2023-11-19T15:42:39;8.20;99.90
65044;DHT22;51617;48.158;16.464;2023-11-19T15:45:12;8.20;99.90
65044;DHT22;51617;48.158;16.464;2023-11-19T15:47:38;8.20;99.90
65044;DHT22;51617;48.158;16.464;2023-11-19T15:50:05;8.20;99.90
65044;DHT22;51617;48.158;16.464;2023-11-19T15:52:31;8.20;99.90
65044;DHT22;51617;48.158;16.464;2023-11-19T15:54:57;8.10;99.90
65044;DHT22;51617;48.158;16.464;2023-11-19T15:57:23;8.10;99.90
65044;DHT22;51617;48.158;16.464;2023-11-19T15:59:49;8.00;99.90
65044;DHT22;51617;48.158;16.464;2023-11-19T16:02:15;8.00;99.90